createdAt,value
2019-05-29T00:02:20.297Z,98.50
2019-05-29T00:04:50.769Z,98.76
2019-05-29T00:07:20.945Z,98.76
2019-05-29T00:09:51.259Z,98.73
2019-05-29T00:12:22.315Z,98.80
2019-05-29T00:14:52.464Z,98.56
2019-05-29T00:17:22.818Z,98.82
2019-05-29T00:19:53.077Z,99.11
2019-05-29T00:22:23.248Z,99.05
2019-05-29T00:24:54.955Z,98.83
2019-05-29T00:27:25.311Z,98.81
2019-05-29T00:29:55.735Z,98.98
2019-05-29T00:32:25.956Z,98.76
2019-05-29T00:34:56.155Z,98.65
2019-05-29T00:37:26.799Z,98.68
2019-05-29T00:39:58.602Z,98.70
2019-05-29T00:42:29.837Z,98.77
2019-05-29T00:45:00.221Z,98.79
2019-05-29T00:47:30.555Z,99.04
2019-05-29T00:49:59.764Z,98.99
2019-05-29T00:52:30.169Z,98.89
2019-05-29T00:54:59.322Z,98.76
2019-05-29T00:57:29.569Z,98.81
2019-05-29T00:59:59.756Z,98.77
2019-05-29T01:02:30.318Z,98.73
2019-05-29T01:05:00.653Z,98.86
2019-05-29T01:07:33.539Z,98.87
2019-05-29T01:10:03.841Z,99.53
2019-05-29T01:12:34.072Z,99.63
2019-05-29T01:15:04.796Z,99.71
2019-05-29T01:17:38.223Z,99.79
2019-05-29T01:20:08.860Z,99.98
2019-05-29T01:22:39.305Z,100.00
2019-05-29T01:25:09.618Z,100.00
2019-05-29T01:27:39.853Z,100.00
2019-05-29T01:30:10.488Z,100.00
2019-05-29T01:32:41.040Z,100.00
2019-05-29T01:35:11.506Z,100.00
2019-05-29T01:37:41.841Z,100.00
2019-05-29T01:40:20.094Z,100.00
2019-05-29T01:42:44.850Z,100.00
2019-05-29T01:45:15.508Z,100.00
2019-05-29T01:47:45.949Z,99.84
2019-05-29T01:50:17.691Z,99.04
2019-05-29T01:52:47.901Z,98.76
2019-05-29T01:55:18.196Z,98.40
2019-05-29T01:57:48.377Z,98.14
2019-05-29T02:00:20.129Z,98.23
2019-05-29T02:02:50.380Z,98.28
2019-05-29T02:05:21.912Z,97.58
2019-05-29T02:07:52.691Z,97.46
2019-05-29T02:10:26.307Z,97.47
2019-05-29T02:12:56.738Z,97.35
2019-05-29T02:20:34.626Z,97.88
2019-05-29T02:23:05.522Z,97.84
2019-05-29T02:25:36.456Z,97.91
2019-05-29T02:28:06.887Z,98.16
2019-05-29T02:30:37.105Z,98.11
2019-05-29T02:33:07.313Z,98.11
2019-05-29T02:35:37.723Z,98.29
2019-05-29T02:38:07.832Z,98.58
2019-05-29T02:40:38.186Z,98.79
2019-05-29T02:43:08.422Z,99.01
2019-05-29T02:45:53.954Z,99.08
2019-05-29T02:48:10.533Z,99.16
2019-05-29T02:50:40.871Z,99.48
2019-05-29T02:53:11.244Z,99.45
2019-05-29T02:55:41.421Z,99.37
2019-05-29T02:58:11.899Z,99.37
2019-05-29T03:00:54.143Z,99.34
2019-05-29T03:03:26.548Z,99.37
2019-05-29T03:05:57.455Z,99.66
2019-05-29T03:08:31.166Z,99.91
2019-05-29T03:10:59.704Z,99.84
2019-05-29T03:13:31.601Z,99.76
2019-05-29T03:16:10.426Z,99.84
2019-05-29T03:18:35.022Z,99.96
2019-05-29T03:21:05.459Z,100.00
2019-05-29T03:23:36.493Z,100.00
2019-05-29T03:26:06.917Z,100.00
2019-05-29T03:28:38.329Z,100.00
2019-05-29T03:31:09.213Z,100.00
2019-05-29T03:33:48.299Z,100.00
2019-05-29T03:36:11.437Z,100.00
2019-05-29T03:38:41.719Z,100.00
2019-05-29T03:41:12.166Z,100.00
2019-05-29T03:43:42.391Z,100.00
2019-05-29T03:46:29.013Z,100.00
2019-05-29T03:48:44.684Z,100.00
2019-05-29T03:51:14.885Z,100.00
2019-05-29T03:53:45.205Z,100.00
2019-05-29T03:56:15.474Z,100.00
2019-05-29T03:58:45.942Z,100.00
2019-05-29T04:01:16.485Z,99.36
2019-05-29T04:03:46.879Z,99.06
2019-05-29T04:06:17.132Z,98.51
2019-05-29T04:08:47.809Z,98.46
2019-05-29T04:11:19.605Z,98.38
2019-05-29T04:13:50.326Z,98.31
2019-05-29T04:16:21.744Z,98.21
2019-05-29T04:18:52.303Z,97.97
2019-05-29T04:21:23.833Z,98.04
2019-05-29T04:23:55.188Z,97.90
2019-05-29T04:26:27.945Z,97.93
2019-05-29T04:28:58.768Z,97.81
2019-05-29T04:31:29.971Z,97.54
2019-05-29T04:34:00.577Z,97.30
2019-05-29T04:36:32.847Z,97.59
2019-05-29T04:39:03.069Z,97.73
2019-05-29T04:41:34.654Z,97.65
2019-05-29T04:44:06.105Z,97.41
2019-05-29T04:46:38.338Z,96.98
2019-05-29T04:49:11.755Z,97.15
2019-05-29T04:51:42.080Z,96.71
2019-05-29T04:54:12.368Z,96.54
2019-05-29T04:56:42.618Z,95.92
2019-05-29T04:59:12.794Z,94.58
2019-05-29T05:01:43.157Z,94.08
2019-05-29T05:04:13.821Z,94.33
2019-05-29T05:06:44.217Z,94.07
2019-05-29T05:09:14.635Z,93.89
2019-05-29T05:11:45.488Z,94.12
2019-05-29T05:14:17.459Z,93.35
2019-05-29T05:16:48.546Z,93.12
2019-05-29T05:19:18.862Z,93.32
2019-05-29T05:21:49.240Z,93.14
2019-05-29T05:24:19.583Z,92.41
2019-05-29T05:26:49.847Z,92.16
2019-05-29T05:29:20.068Z,92.10
2019-05-29T05:31:51.466Z,89.45
2019-05-29T05:34:21.907Z,89.69
2019-05-29T05:36:55.335Z,88.97
2019-05-29T05:39:25.651Z,89.19
2019-05-29T05:41:58.892Z,87.63
2019-05-29T05:44:29.126Z,86.43
2019-05-29T05:46:59.941Z,86.27
2019-05-29T05:49:31.225Z,85.38
2019-05-29T05:52:02.784Z,84.92
2019-05-29T05:54:33.431Z,84.50
2019-05-29T05:57:03.996Z,83.38
2019-05-29T05:59:35.769Z,82.35
2019-05-29T06:02:06.075Z,82.30
2019-05-29T06:04:36.385Z,81.29
2019-05-29T06:07:06.575Z,81.57
2019-05-29T06:09:38.145Z,81.81
2019-05-29T06:12:08.669Z,81.61
2019-05-29T06:14:40.561Z,81.13
2019-05-29T06:17:12.079Z,81.83
2019-05-29T06:19:43.119Z,81.82
2019-05-29T06:22:13.307Z,82.26
2019-05-29T06:24:43.791Z,82.04
2019-05-29T06:27:14.431Z,81.77
2019-05-29T06:29:44.856Z,82.65
2019-05-29T06:32:15.142Z,83.43
2019-05-29T06:34:45.637Z,83.32
2019-05-29T06:37:16.180Z,83.44
2019-05-29T06:39:46.777Z,83.94
2019-05-29T06:42:17.006Z,83.35
2019-05-29T06:44:49.009Z,83.94
2019-05-29T06:47:19.171Z,83.63
2019-05-29T06:49:49.506Z,83.76
2019-05-29T06:52:19.793Z,84.05
2019-05-29T06:54:50.160Z,83.91
2019-05-29T06:57:20.331Z,84.49
2019-05-29T06:59:50.620Z,84.26
2019-05-29T07:02:21.306Z,84.02
2019-05-29T07:04:51.560Z,84.51
2019-05-29T07:07:21.741Z,83.91
2019-05-29T07:09:51.948Z,84.02
2019-05-29T07:12:22.202Z,84.46
2019-05-29T07:14:52.653Z,83.94
2019-05-29T07:17:22.981Z,84.55
2019-05-29T07:20:02.938Z,84.97
2019-05-29T07:22:25.884Z,84.86
2019-05-29T07:24:56.120Z,84.99
2019-05-29T07:27:26.339Z,85.03
2019-05-29T07:29:56.652Z,83.80
2019-05-29T07:32:27.007Z,84.00
2019-05-29T07:35:03.526Z,84.94
2019-05-29T07:37:29.252Z,84.80
2019-05-29T07:39:59.423Z,84.59
2019-05-29T07:42:30.177Z,84.41
2019-05-29T07:45:00.503Z,84.04
2019-05-29T07:47:30.890Z,83.84
2019-05-29T07:50:01.257Z,83.66
2019-05-29T07:52:33.251Z,82.74
2019-05-29T07:55:03.562Z,82.04
2019-05-29T07:57:33.925Z,81.65
2019-05-29T08:00:04.676Z,79.95
2019-05-29T08:02:35.170Z,79.40
2019-05-29T08:05:06.966Z,78.52
2019-05-29T08:07:37.152Z,77.96
2019-05-29T08:10:07.876Z,77.40
2019-05-29T08:12:43.926Z,75.25
2019-05-29T08:15:10.190Z,74.79
2019-05-29T08:17:42.073Z,74.01
2019-05-29T08:20:13.990Z,72.76
2019-05-29T08:22:44.535Z,72.49
2019-05-29T08:25:14.897Z,72.09
2019-05-29T08:27:46.670Z,72.87
2019-05-29T08:30:17.129Z,72.97
2019-05-29T08:32:49.102Z,73.18
2019-05-29T08:35:19.359Z,72.70
2019-05-29T08:37:49.734Z,72.88
2019-05-29T08:40:20.346Z,73.13
2019-05-29T08:42:51.495Z,72.65
2019-05-29T08:45:24.933Z,72.60
2019-05-29T08:47:55.338Z,72.34
2019-05-29T08:50:25.567Z,71.98
2019-05-29T08:52:55.835Z,72.44
2019-05-29T08:55:27.559Z,70.97
2019-05-29T08:57:57.945Z,69.57
2019-05-29T09:00:28.818Z,68.07
2019-05-29T09:02:59.126Z,67.67
2019-05-29T09:05:29.679Z,66.98
2019-05-29T09:07:59.960Z,64.72
2019-05-29T09:10:32.024Z,64.00
2019-05-29T09:13:05.041Z,62.53
2019-05-29T09:15:34.425Z,63.05
2019-05-29T09:18:07.418Z,62.53
2019-05-29T09:21:01.117Z,61.74
2019-05-29T09:23:09.671Z,58.63
2019-05-29T09:25:39.907Z,59.63
2019-05-29T09:28:18.406Z,58.47
2019-05-29T09:30:48.211Z,59.08
2019-05-29T09:33:21.368Z,57.83
2019-05-29T09:35:50.941Z,57.17
2019-05-29T09:38:22.924Z,57.11
2019-05-29T09:40:54.782Z,56.94
2019-05-29T09:43:29.751Z,54.63
2019-05-29T09:45:57.313Z,51.65
2019-05-29T09:48:48.545Z,49.90
2019-05-29T09:51:20.780Z,47.11
2019-05-29T09:53:40.842Z,45.67
2019-05-29T09:56:11.240Z,47.69
2019-05-29T09:58:41.694Z,47.08
2019-05-29T10:01:22.674Z,47.06
2019-05-29T10:03:44.867Z,47.61
2019-05-29T10:06:15.209Z,47.09
2019-05-29T10:08:45.599Z,47.06
2019-05-29T10:11:16.186Z,46.86
2019-05-29T10:13:46.893Z,48.05
2019-05-29T10:16:17.378Z,45.02
2019-05-29T10:18:48.272Z,45.94
2019-05-29T10:21:18.963Z,46.23
2019-05-29T10:23:50.132Z,46.50
2019-05-29T10:26:20.624Z,44.49
2019-05-29T10:31:24.177Z,44.80
2019-05-29T10:33:55.006Z,44.18
2019-05-29T10:34:38.778Z,45.89
2019-05-29T10:36:25.655Z,44.19
2019-05-29T10:38:56.756Z,43.77
2019-05-29T10:41:27.487Z,42.25
2019-05-29T10:43:58.122Z,41.77
2019-05-29T10:46:28.545Z,43.17
2019-05-29T10:48:59.277Z,43.10
2019-05-29T10:51:33.182Z,41.62
2019-05-29T10:54:03.765Z,39.67
2019-05-29T10:56:34.613Z,38.92
2019-05-29T10:59:05.164Z,36.38
2019-05-29T11:01:36.044Z,36.47
2019-05-29T11:04:07.378Z,35.64
2019-05-29T11:06:40.824Z,35.80
2019-05-29T11:09:17.180Z,35.77
2019-05-29T11:11:48.430Z,35.77
2019-05-29T11:14:18.858Z,37.27
2019-05-29T11:16:53.080Z,37.95
2019-05-29T11:19:27.890Z,38.43
2019-05-29T11:22:01.702Z,39.11
2019-05-29T11:24:30.302Z,40.29
2019-05-29T11:27:01.541Z,42.61
2019-05-29T11:29:32.804Z,42.91
2019-05-29T11:32:03.163Z,43.17
2019-05-29T11:34:33.257Z,43.32
2019-05-29T11:37:03.387Z,41.86
2019-05-29T11:39:33.689Z,42.68
2019-05-29T11:42:04.255Z,41.77
2019-05-29T11:44:34.598Z,41.95
2019-05-29T11:47:04.887Z,42.24
2019-05-29T11:49:38.289Z,42.02
2019-05-29T11:52:23.582Z,40.32
2019-05-29T11:54:40.298Z,37.48
2019-05-29T11:57:10.351Z,36.58
2019-05-29T11:59:42.255Z,35.67
2019-05-29T12:02:12.994Z,35.99
2019-05-29T12:04:43.243Z,36.29
2019-05-29T12:07:13.581Z,35.94
2019-05-29T12:09:44.308Z,37.47
2019-05-29T12:12:14.721Z,37.40
2019-05-29T12:14:58.831Z,39.47
2019-05-29T12:17:17.498Z,37.53
2019-05-29T12:19:49.653Z,37.45
2019-05-29T12:22:21.115Z,37.41
2019-05-29T12:24:52.498Z,36.38
2019-05-29T12:27:22.856Z,34.50
2019-05-29T12:29:53.187Z,33.64
2019-05-29T12:32:23.939Z,35.06
2019-05-29T12:34:55.748Z,33.39
2019-05-29T12:37:27.043Z,31.60
2019-05-29T12:39:58.229Z,29.50
2019-05-29T12:42:30.575Z,30.74
2019-05-29T12:45:02.009Z,30.40
2019-05-29T12:47:33.108Z,29.72
2019-05-29T12:50:05.999Z,30.72
2019-05-29T12:52:36.809Z,31.65
2019-05-29T12:55:07.766Z,32.61
2019-05-29T12:57:38.506Z,32.89
2019-05-29T13:00:10.321Z,33.67
2019-05-29T13:02:41.052Z,33.99
2019-05-29T13:05:20.077Z,34.20
2019-05-29T13:07:47.123Z,33.89
2019-05-29T13:10:29.848Z,34.77
2019-05-29T13:12:51.349Z,35.82
2019-05-29T13:15:22.518Z,36.78
2019-05-29T13:17:59.763Z,35.65
2019-05-29T13:20:26.145Z,37.05
2019-05-29T13:22:57.656Z,36.48
2019-05-29T13:25:28.618Z,38.24
2019-05-29T13:27:59.957Z,39.20
2019-05-29T13:30:31.197Z,40.44
2019-05-29T13:33:03.562Z,42.22
2019-05-29T13:35:34.213Z,43.90
2019-05-29T13:38:05.309Z,44.07
2019-05-29T13:40:35.787Z,43.87
2019-05-29T13:43:14.705Z,43.41
2019-05-29T13:45:38.927Z,43.30
2019-05-29T13:48:10.693Z,42.74
2019-05-29T13:50:42.190Z,43.69
2019-05-29T13:53:12.732Z,42.13
2019-05-29T13:55:43.417Z,42.42
2019-05-29T13:58:14.145Z,41.26
2019-05-29T14:00:45.134Z,39.91
2019-05-29T14:03:15.995Z,40.44
2019-05-29T14:05:46.469Z,39.68
2019-05-29T14:08:17.055Z,39.48
2019-05-29T14:10:47.769Z,37.96
2019-05-29T14:13:18.673Z,38.87
2019-05-29T14:15:52.204Z,40.27
2019-05-29T14:18:22.884Z,39.38
2019-05-29T14:20:53.568Z,39.17
2019-05-29T14:23:24.397Z,39.38
2019-05-29T14:25:54.773Z,40.41
2019-05-29T14:28:25.607Z,39.49
2019-05-29T14:30:56.243Z,41.00
2019-05-29T14:33:27.616Z,40.69
2019-05-29T14:35:58.191Z,41.19
2019-05-29T14:38:28.558Z,41.46
2019-05-29T14:40:58.951Z,41.16
2019-05-29T14:43:29.324Z,40.48
2019-05-29T14:45:59.478Z,40.03
2019-05-29T14:48:30.177Z,40.08
2019-05-29T14:51:04.865Z,40.25
2019-05-29T14:53:35.561Z,42.09
2019-05-29T14:56:06.614Z,46.80
2019-05-29T14:58:36.896Z,49.75
2019-05-29T15:01:11.244Z,52.55
2019-05-29T15:03:41.645Z,55.05
2019-05-29T15:06:12.228Z,55.08
2019-05-29T15:08:44.468Z,53.58
2019-05-29T15:11:14.944Z,55.91
2019-05-29T15:13:45.120Z,57.11
2019-05-29T15:16:15.587Z,57.35
2019-05-29T15:18:46.065Z,56.77
2019-05-29T15:21:16.559Z,60.15
2019-05-29T15:23:47.798Z,59.03
2019-05-29T15:26:18.078Z,60.10
2019-05-29T15:28:50.980Z,61.65
2019-05-29T15:31:21.463Z,62.10
2019-05-29T15:33:52.226Z,63.63
2019-05-29T15:36:22.577Z,63.13
2019-05-29T15:38:52.990Z,65.01
2019-05-29T15:41:23.274Z,64.38
2019-05-29T15:43:53.551Z,64.18
2019-05-29T15:46:23.841Z,63.74
2019-05-29T15:48:53.981Z,63.78
2019-05-29T15:51:24.295Z,63.38
2019-05-29T15:53:54.900Z,63.61
2019-05-29T15:56:27.774Z,64.15
2019-05-29T15:58:57.266Z,63.03
2019-05-29T16:01:27.498Z,63.21
2019-05-29T16:03:57.867Z,64.12
2019-05-29T16:06:28.271Z,63.87
2019-05-29T16:08:59.077Z,63.51
2019-05-29T16:11:29.505Z,64.69
2019-05-29T16:13:59.788Z,64.11
2019-05-29T16:16:30.123Z,64.39
2019-05-29T16:19:03.222Z,64.46
2019-05-29T16:21:34.894Z,65.46
2019-05-29T16:24:05.422Z,65.96
2019-05-29T16:26:35.919Z,64.80
2019-05-29T16:29:06.403Z,64.89
2019-05-29T16:31:36.898Z,64.33
2019-05-29T16:34:07.327Z,64.79
2019-05-29T16:36:37.967Z,65.30
2019-05-29T16:39:09.062Z,65.61
2019-05-29T16:41:39.556Z,65.25
2019-05-29T16:44:14.089Z,65.29
2019-05-29T16:46:44.682Z,66.01
2019-05-29T16:49:15.175Z,65.96
2019-05-29T16:51:46.172Z,66.33
2019-05-29T16:54:17.353Z,65.79
2019-05-29T16:56:47.743Z,66.51
2019-05-29T16:59:19.211Z,65.91
2019-05-29T17:01:49.850Z,67.08
2019-05-29T17:04:20.275Z,69.12
2019-05-29T17:06:50.562Z,70.16
2019-05-29T17:09:20.763Z,70.59
2019-05-29T17:11:50.952Z,70.87
2019-05-29T17:14:22.728Z,73.10
2019-05-29T17:16:53.079Z,73.97
2019-05-29T17:19:23.321Z,73.35
2019-05-29T17:21:55.064Z,72.03
2019-05-29T17:24:25.597Z,68.83
2019-05-29T17:26:58.348Z,66.60
2019-05-29T17:29:28.905Z,66.36
2019-05-29T17:32:02.335Z,65.92
2019-05-29T17:34:33.956Z,66.24
2019-05-29T17:37:08.005Z,66.20
2019-05-29T17:39:38.613Z,66.38
2019-05-29T17:42:10.639Z,67.04
2019-05-29T17:44:41.318Z,66.54
2019-05-29T17:47:12.190Z,67.13
2019-05-29T17:49:43.113Z,67.23
2019-05-29T17:52:13.730Z,67.87
2019-05-29T17:54:44.502Z,68.72
2019-05-29T17:57:16.622Z,68.45
2019-05-29T17:59:47.257Z,68.72
2019-05-29T18:02:22.170Z,69.68
2019-05-29T18:04:53.158Z,71.68
2019-05-29T18:07:24.796Z,72.75
2019-05-29T18:09:58.735Z,74.18
2019-05-29T18:12:30.090Z,75.45
2019-05-29T18:15:00.763Z,75.74
2019-05-29T18:17:31.568Z,76.22
2019-05-29T18:20:02.347Z,76.47
2019-05-29T18:22:33.204Z,77.29
2019-05-29T18:25:05.144Z,77.40
2019-05-29T18:27:36.391Z,77.59
2019-05-29T18:30:07.126Z,78.55
2019-05-29T18:32:38.592Z,79.13
2019-05-29T18:35:09.538Z,79.71
2019-05-29T18:37:40.375Z,80.03
2019-05-29T18:40:12.840Z,80.84
2019-05-29T18:42:44.509Z,81.02
2019-05-29T18:45:20.886Z,80.98
2019-05-29T18:47:49.044Z,81.54
2019-05-29T18:50:21.917Z,82.11
2019-05-29T18:52:55.329Z,81.92
2019-05-29T18:55:26.989Z,81.97
2019-05-29T18:57:57.737Z,82.83
2019-05-29T19:00:29.680Z,83.01
2019-05-29T19:03:00.254Z,83.98
2019-05-29T19:05:31.814Z,84.49
2019-05-29T19:08:02.920Z,84.23
2019-05-29T19:10:34.753Z,84.59
2019-05-29T19:13:06.511Z,85.24
2019-05-29T19:15:37.755Z,85.33
2019-05-29T19:18:08.945Z,85.14
2019-05-29T19:20:40.223Z,85.20
2019-05-29T19:23:10.751Z,85.99
2019-05-29T19:25:42.789Z,86.61
2019-05-29T19:28:13.892Z,86.57
2019-05-29T19:30:44.465Z,86.67
2019-05-29T19:33:15.114Z,87.02
2019-05-29T19:35:46.131Z,86.98
2019-05-29T19:38:18.133Z,86.89
2019-05-29T19:40:50.380Z,87.08
2019-05-29T19:43:24.160Z,87.49
2019-05-29T19:45:55.649Z,87.71
2019-05-29T19:48:26.910Z,88.31
2019-05-29T19:50:57.747Z,88.82
2019-05-29T19:53:31.996Z,89.35
2019-05-29T19:56:03.425Z,89.37
2019-05-29T19:58:34.558Z,89.29
2019-05-29T20:01:06.139Z,89.36
2019-05-29T20:03:38.166Z,89.52
2019-05-29T20:06:09.662Z,90.03
2019-05-29T20:08:40.425Z,90.04
2019-05-29T20:11:14.266Z,89.85
2019-05-29T20:13:45.837Z,89.86
2019-05-29T20:16:17.667Z,89.96
2019-05-29T20:18:49.490Z,90.03
2019-05-29T20:21:20.768Z,90.08
2019-05-29T20:23:52.101Z,90.19
2019-05-29T20:26:25.543Z,90.30
2019-05-29T20:28:57.014Z,90.43
2019-05-29T20:31:28.769Z,90.54
2019-05-29T20:33:59.657Z,90.76
2019-05-29T20:36:33.547Z,91.35
2019-05-29T20:39:04.462Z,91.10
2019-05-29T20:41:42.896Z,91.13
2019-05-29T20:44:11.511Z,91.08
2019-05-29T20:46:42.809Z,91.60
2019-05-29T20:49:13.926Z,91.26
2019-05-29T20:51:45.459Z,91.96
2019-05-29T20:54:17.348Z,91.95
2019-05-29T20:56:49.016Z,91.82
2019-05-29T20:59:19.993Z,91.69
2019-05-29T21:01:51.047Z,91.87
2019-05-29T21:04:22.345Z,91.98
2019-05-29T21:06:53.073Z,92.18
2019-05-29T21:09:24.500Z,92.27
2019-05-29T21:11:55.864Z,92.11
2019-05-29T21:14:27.431Z,92.07
2019-05-29T21:16:58.635Z,92.15
2019-05-29T21:19:29.565Z,92.18
2019-05-29T21:22:00.822Z,92.40
2019-05-29T21:24:34.552Z,92.38
2019-05-29T21:27:08.156Z,92.27
2019-05-29T21:29:41.238Z,92.36
2019-05-29T21:32:13.720Z,92.32
2019-05-29T21:34:44.584Z,92.59
2019-05-29T21:37:15.426Z,92.80
2019-05-29T21:39:46.631Z,92.64
2019-05-29T21:42:17.908Z,92.76
2019-05-29T21:44:48.418Z,93.01
2019-05-29T21:47:21.601Z,93.10
2019-05-29T21:49:52.379Z,93.10
2019-05-29T21:52:22.753Z,93.02
2019-05-29T21:54:53.129Z,93.01
2019-05-29T21:57:23.396Z,93.18
2019-05-29T21:59:54.183Z,93.69
2019-05-29T22:02:24.627Z,93.63
2019-05-29T22:04:54.829Z,93.47
2019-05-29T22:07:25.074Z,93.04
2019-05-29T22:09:56.566Z,93.58
2019-05-29T22:12:26.922Z,93.82
2019-05-29T22:14:58.942Z,93.93
2019-05-29T22:17:30.939Z,94.05
2019-05-29T22:20:01.621Z,93.93
2019-05-29T22:22:33.302Z,94.05
2019-05-29T22:25:04.657Z,94.08
2019-05-29T22:27:34.997Z,94.34
2019-05-29T22:30:08.414Z,94.40
2019-05-29T22:32:38.754Z,94.24
2019-05-29T22:35:09.939Z,94.27
2019-05-29T22:37:40.146Z,94.30
2019-05-29T22:46:35.196Z,94.73
2019-05-29T22:49:14.002Z,94.83
2019-05-29T22:51:44.380Z,94.82
2019-05-29T22:54:14.880Z,94.52
2019-05-29T22:56:45.623Z,94.93
2019-05-29T22:59:31.170Z,94.82
2019-05-29T23:01:47.983Z,94.87
2019-05-29T23:04:18.391Z,94.84
2019-05-29T23:06:48.593Z,94.64
2019-05-29T23:09:18.876Z,94.47
2019-05-29T23:11:50.153Z,94.68
2019-05-29T23:14:20.348Z,94.65
2019-05-29T23:16:50.632Z,94.76
2019-05-29T23:19:21.271Z,95.08
2019-05-29T23:21:52.386Z,95.04
2019-05-29T23:24:22.728Z,95.17
2019-05-29T23:26:53.101Z,95.08
2019-05-29T23:29:23.373Z,95.06
2019-05-29T23:31:54.688Z,95.16
2019-05-29T23:34:25.273Z,95.28
2019-05-29T23:36:57.037Z,95.16
2019-05-29T23:39:27.752Z,94.89
2019-05-29T23:41:59.310Z,94.69
2019-05-29T23:54:11.474Z,95.19
2019-05-29T23:56:41.663Z,95.24
2019-05-29T23:59:12.044Z,95.34
